Time;durP1;ratioP1;P1;durP2;ratioP2;P2;SDS_P1;SDS_P2;PMS_P1;PMS_P2;Temp;Humidity;BMP_temperature;BMP_pressure;BME280_temperature;BME280_humidity;BME280_pressure;Samples;Min_cycle;Max_cycle;Signal;HPM_P1;HPM_P2
2023/01/12 00:01:10;;;;;;;13.27;12.07;;;;;;;2.39;100.00;92910.97;5073102;28;20225;-78
2023/01/12 00:03:35;;;;;;;12.20;11.20;;;;;;;2.43;100.00;92912.88;5072111;28;20193;-78
2023/01/12 00:06:06;;;;;;;13.47;12.43;;;;;;;2.29;100.00;92915.91;5072009;28;20256;-78
2023/01/12 00:08:32;;;;;;;13.47;12.30;;;;;;;2.40;100.00;92915.09;5072796;28;20269;-78
2023/01/12 00:10:58;;;;;;;13.73;12.30;;;;;;;2.45;100.00;92921.19;5072098;28;20224;-78
2023/01/12 00:13:23;;;;;;;12.93;11.57;;;;;;;2.46;100.00;92920.16;5073042;28;20216;-78
2023/01/12 00:18:32;;;;;;;12.70;11.57;;;;;;;2.34;100.00;92906.47;5073117;28;20195;-79
2023/01/12 00:20:58;;;;;;;13.40;12.30;;;;;;;2.45;100.00;92915.22;5072161;28;20236;-79
2023/01/12 00:23:25;;;;;;;13.37;12.10;;;;;;;2.51;100.00;92911.75;5073222;28;20177;-74
2023/01/12 00:25:51;;;;;;;13.60;12.60;;;;;;;2.56;100.00;92922.19;5072789;28;20243;-76
2023/01/12 00:28:16;;;;;;;12.77;11.80;;;;;;;2.48;100.00;92920.72;5072802;28;20204;-76
2023/01/12 00:30:41;;;;;;;12.07;11.17;;;;;;;2.22;100.00;92920.34;5071193;28;20225;-76
2023/01/12 00:33:07;;;;;;;11.67;10.97;;;;;;;2.09;100.00;92910.22;5070315;28;20229;-76
2023/01/12 00:35:35;;;;;;;12.13;11.23;;;;;;;2.06;100.00;92926.09;5071891;28;20231;-77
2023/01/12 00:38:00;;;;;;;11.27;10.40;;;;;;;2.17;100.00;92915.06;5072014;28;20212;-76
2023/01/12 00:40:26;;;;;;;11.13;10.23;;;;;;;2.26;100.00;92935.13;5072948;28;20217;-76
2023/01/12 00:45:35;;;;;;;14.17;12.80;;;;;;;2.18;100.00;92920.00;5071924;28;20275;-76
2023/01/12 00:48:01;;;;;;;13.37;12.10;;;;;;;2.54;100.00;92925.00;5072036;28;20193;-76
2023/01/12 00:50:26;;;;;;;12.90;11.70;;;;;;;2.39;100.00;92903.25;5068186;28;20314;-76
2023/01/12 00:52:51;;;;;;;12.73;11.80;;;;;;;2.40;100.00;92925.41;5072159;28;20209;-76
2023/01/12 00:55:17;;;;;;;13.47;12.37;;;;;;;2.19;100.00;92915.63;5071480;28;20281;-76
2023/01/12 00:57:42;;;;;;;11.83;11.00;;;;;;;2.27;100.00;92907.59;5073891;28;20189;-76
2023/01/12 01:00:08;;;;;;;12.33;11.57;;;;;;;2.29;100.00;92914.09;5071594;28;20253;-76
2023/01/12 01:02:34;;;;;;;11.90;11.10;;;;;;;2.41;100.00;92914.88;5070949;28;20192;-76
2023/01/12 01:04:59;;;;;;;11.53;10.90;;;;;;;2.36;100.00;92911.41;5071347;28;20223;-77
2023/01/12 01:07:24;;;;;;;11.93;11.23;;;;;;;2.37;100.00;92912.97;5072015;28;20181;-76
2023/01/12 01:09:50;;;;;;;13.23;12.20;;;;;;;2.36;100.00;92927.66;5071328;28;20233;-76
2023/01/12 01:12:16;;;;;;;11.40;10.63;;;;;;;2.09;100.00;92889.63;5070979;28;20201;-75
2023/01/12 01:14:41;;;;;;;12.17;11.40;;;;;;;2.12;100.00;92905.41;5069012;28;20236;-76
2023/01/12 01:17:07;;;;;;;12.80;11.90;;;;;;;2.22;100.00;92916.00;5071345;28;20204;-76
2023/01/12 01:19:32;;;;;;;13.13;12.03;;;;;;;2.08;100.00;92906.09;5071677;28;20243;-76
2023/01/12 01:21:57;;;;;;;10.70;10.00;;;;;;;2.07;100.00;92899.38;5071744;28;20252;-76
2023/01/12 01:24:23;;;;;;;14.03;13.03;;;;;;;2.15;100.00;92902.41;5071395;28;20217;-76
2023/01/12 01:26:49;;;;;;;14.10;13.00;;;;;;;2.01;100.00;92918.28;5071465;28;20200;-76
2023/01/12 01:29:14;;;;;;;12.87;11.93;;;;;;;2.13;100.00;92919.88;5070873;28;20229;-76
2023/01/12 01:31:39;;;;;;;13.43;12.43;;;;;;;2.22;100.00;92921.13;5070109;28;20216;-76
2023/01/12 01:34:05;;;;;;;13.67;12.57;;;;;;;2.33;100.00;92929.88;5069997;28;20247;-76
2023/01/12 01:36:31;;;;;;;12.83;11.93;;;;;;;2.50;100.00;92923.88;5071092;28;20178;-76
2023/01/12 01:38:56;;;;;;;12.60;11.70;;;;;;;2.23;100.00;92919.31;5071090;28;20208;-76
2023/01/12 01:41:25;;;;;;;13.67;12.57;;;;;;;2.29;100.00;92931.34;5070939;28;20178;-76
2023/01/12 01:43:50;;;;;;;12.03;11.20;;;;;;;2.23;100.00;92939.94;5070703;28;20185;-76
2023/01/12 01:46:24;;;;;;;12.13;11.13;;;;;;;2.15;100.00;92941.03;5070680;28;20197;-76
2023/01/12 01:48:49;;;;;;;13.10;12.10;;;;;;;2.23;100.00;92938.16;5068205;28;20205;-76
2023/01/12 01:51:15;;;;;;;12.27;11.33;;;;;;;2.25;100.00;92943.06;5070929;28;20232;-75
2023/01/12 01:53:45;;;;;;;11.97;11.17;;;;;;;2.27;100.00;92944.44;5068985;28;20241;-76
2023/01/12 01:56:21;;;;;;;13.80;12.60;;;;;;;2.33;100.00;92942.78;5069826;28;20220;-76
2023/01/12 01:58:52;;;;;;;13.97;12.77;;;;;;;2.24;100.00;92946.66;5069596;28;20193;-76
2023/01/12 02:01:17;;;;;;;12.23;11.23;;;;;;;2.31;100.00;92940.41;5090503;28;20203;-76
2023/01/12 02:03:44;;;;;;;13.90;12.73;;;;;;;2.26;100.00;92927.41;5089829;28;20193;-76
2023/01/12 02:06:09;;;;;;;13.43;12.33;;;;;;;2.19;100.00;92889.88;5089605;28;20250;-76
2023/01/12 02:08:53;;;;;;;13.23;12.20;;;;;;;2.43;100.00;92943.03;5091709;28;20184;-76
2023/01/12 02:16:58;;;;;;;13.53;12.33;;;;;;;2.46;100.00;92938.19;5089640;28;20210;-76
2023/01/12 02:19:32;;;;;;;15.87;14.47;;;;;;;2.40;100.00;92941.66;5089113;28;20224;-76
2023/01/12 02:22:21;;;;;;;13.17;12.03;;;;;;;2.61;100.00;92940.34;5090896;28;20240;-76
2023/01/12 02:25:16;;;;;;;13.17;12.27;;;;;;;2.72;100.00;92940.38;5073645;28;20702;-76
2023/01/12 02:28:20;;;;;;;13.27;12.17;;;;;;;2.58;100.00;92933.06;5093435;28;20188;-76
2023/01/12 02:31:20;;;;;;;13.20;12.20;;;;;;;2.62;100.00;92941.91;5051235;28;20228;-76
2023/01/12 02:34:10;;;;;;;12.90;11.90;;;;;;;2.55;99.80;92942.00;5088926;28;20251;-75
2023/01/12 02:37:09;;;;;;;11.33;10.63;;;;;;;2.45;99.29;92941.00;5089468;28;20222;-76
2023/01/12 02:39:58;;;;;;;12.53;11.53;;;;;;;2.53;99.37;92928.59;5103646;28;20244;-76
2023/01/12 02:42:41;;;;;;;13.23;12.23;;;;;;;2.47;99.68;92933.84;5091291;28;20176;-76
2023/01/12 02:45:28;;;;;;;12.53;11.67;;;;;;;2.17;100.00;92938.22;5089185;28;20236;-76
2023/01/12 02:48:20;;;;;;;11.57;10.73;;;;;;;2.34;100.00;92934.03;5089791;28;20208;-77
2023/01/12 02:50:58;;;;;;;12.80;11.70;;;;;;;2.24;100.00;92918.34;5089440;28;20293;-76
2023/01/12 02:53:41;;;;;;;11.47;10.67;;;;;;;2.12;100.00;92913.16;5089849;28;20234;-76
2023/01/12 02:56:09;;;;;;;12.70;11.80;;;;;;;2.09;100.00;92913.59;5090461;28;20240;-75
2023/01/12 02:58:40;;;;;;;14.17;13.03;;;;;;;2.16;100.00;92918.66;5091121;28;20195;-76
2023/01/12 03:01:08;;;;;;;12.57;11.77;;;;;;;1.84;100.00;92910.38;5089383;28;20212;-76
2023/01/12 03:03:38;;;;;;;13.13;12.10;;;;;;;2.09;100.00;92934.19;5090066;28;20221;-76
2023/01/12 03:06:05;;;;;;;12.50;11.50;;;;;;;1.96;100.00;92931.78;5088835;28;20220;-75
2023/01/12 03:08:34;;;;;;;13.23;11.93;;;;;;;1.79;100.00;92925.66;5090242;28;20185;-76
2023/01/12 03:11:13;;;;;;;13.40;12.20;;;;;;;2.01;100.00;92931.91;5089591;28;20230;-76
2023/01/12 03:13:51;;;;;;;12.83;11.93;;;;;;;2.17;100.00;92933.09;5090585;28;20209;-75
2023/01/12 03:16:23;;;;;;;14.17;12.87;;;;;;;1.91;100.00;92923.94;5088923;28;20250;-75
2023/01/12 03:19:01;;;;;;;14.93;13.57;;;;;;;2.01;100.00;92923.44;5089205;28;20192;-75
2023/01/12 03:21:33;;;;;;;14.33;13.03;;;;;;;1.81;100.00;92922.88;5090686;28;20188;-76
2023/01/12 03:24:05;;;;;;;14.27;13.07;;;;;;;1.85;100.00;92931.75;5089379;28;20189;-75
2023/01/12 03:26:34;;;;;;;14.10;13.00;;;;;;;1.78;100.00;92918.97;5090852;28;20185;-76
2023/01/12 03:29:07;;;;;;;13.17;12.27;;;;;;;1.78;100.00;92907.88;5086907;28;20192;-76
2023/01/12 03:31:32;;;;;;;14.60;13.43;;;;;;;1.77;100.00;92921.75;5089430;28;20200;-76
2023/01/12 03:33:59;;;;;;;12.80;11.90;;;;;;;1.65;100.00;92924.25;5089339;28;20905;-76
2023/01/12 03:36:44;;;;;;;15.23;13.83;;;;;;;1.59;100.00;92930.28;5088349;28;20177;-76
2023/01/12 03:39:26;;;;;;;14.40;13.10;;;;;;;1.68;100.00;92921.28;5103910;28;20938;-76
2023/01/12 03:41:55;;;;;;;14.17;13.10;;;;;;;1.85;100.00;92919.69;5089731;28;20197;-76
2023/01/12 03:44:30;;;;;;;13.57;12.27;;;;;;;2.06;100.00;92926.09;5089226;28;20212;-76
2023/01/12 03:47:02;;;;;;;14.33;13.13;;;;;;;1.93;100.00;92926.31;5088646;28;20249;-76
2023/01/12 03:49:33;;;;;;;13.60;12.50;;;;;;;2.08;100.00;92924.09;5088554;28;20300;-76
2023/01/12 03:52:00;;;;;;;14.10;13.00;;;;;;;1.93;100.00;92913.44;5121317;28;20236;-76
2023/01/12 03:54:26;;;;;;;14.53;13.23;;;;;;;1.90;100.00;92913.88;5088748;28;20246;-75
2023/01/12 03:56:53;;;;;;;14.00;12.90;;;;;;;2.04;100.00;92921.19;5090561;28;20199;-76
2023/01/12 03:59:19;;;;;;;13.63;12.53;;;;;;;1.95;100.00;92901.09;5088438;28;20236;-75
2023/01/12 04:01:45;;;;;;;13.17;12.00;;;;;;;2.17;100.00;92913.28;5090096;28;20189;-75
2023/01/12 04:04:10;;;;;;;12.03;11.30;;;;;;;1.92;100.00;92909.28;5088622;28;20224;-76
2023/01/12 04:06:36;;;;;;;13.53;12.53;;;;;;;2.07;100.00;92912.25;5089515;28;20183;-76
2023/01/12 04:09:01;;;;;;;12.63;11.63;;;;;;;2.05;100.00;92903.94;5088850;28;20189;-76
2023/01/12 04:14:10;;;;;;;13.03;11.93;;;;;;;2.30;100.00;92914.88;5088270;28;20234;-76
2023/01/12 04:16:36;;;;;;;14.40;13.20;;;;;;;2.29;100.00;92911.50;5089633;28;20185;-75
2023/01/12 04:19:01;;;;;;;12.97;11.87;;;;;;;2.35;100.00;92908.03;5088387;28;20284;-76
2023/01/12 04:24:11;;;;;;;12.37;11.37;;;;;;;2.11;100.00;92887.63;5088789;28;20340;-76
2023/01/12 04:26:36;;;;;;;11.93;10.93;;;;;;;1.81;100.00;92835.38;5089267;28;20189;-76
2023/01/12 04:29:01;;;;;;;11.20;10.60;;;;;;;2.38;100.00;92914.56;5088370;28;20243;-75
2023/01/12 04:31:27;;;;;;;12.97;11.87;;;;;;;2.40;100.00;92895.28;5090024;28;20177;-76
2023/01/12 04:33:52;;;;;;;12.30;11.50;;;;;;;2.40;100.00;92915.09;5087911;28;20272;-75
2023/01/12 04:36:17;;;;;;;11.57;10.77;;;;;;;2.42;100.00;92916.47;5088687;28;20197;-76
2023/01/12 04:38:43;;;;;;;12.43;11.57;;;;;;;2.42;100.00;92923.41;5092022;28;20211;-76
2023/01/12 04:41:08;;;;;;;12.87;11.97;;;;;;;2.32;100.00;92920.59;5093807;28;20291;-76
2023/01/12 04:43:34;;;;;;;13.13;12.13;;;;;;;2.24;100.00;92926.06;5091885;28;20214;-76
2023/01/12 04:46:05;;;;;;;12.57;11.67;;;;;;;2.25;100.00;92928.41;5091631;28;20221;-81
2023/01/12 04:48:30;;;;;;;13.13;12.00;;;;;;;2.35;100.00;92928.66;5092122;28;20192;-83
2023/01/12 04:50:58;;;;;;;14.07;12.87;;;;;;;2.41;100.00;92932.16;5087017;28;20250;-83
2023/01/12 04:53:24;;;;;;;13.03;12.20;;;;;;;2.43;99.97;92914.69;5090628;28;20222;-78
2023/01/12 04:55:49;;;;;;;13.37;12.27;;;;;;;2.38;99.56;92901.69;5090448;28;20225;-79
2023/01/12 04:58:14;;;;;;;13.43;12.27;;;;;;;2.41;100.00;92935.50;5091579;28;20192;-79
2023/01/12 05:00:40;;;;;;;12.73;11.77;;;;;;;2.25;100.00;92914.75;5090274;28;20243;-79
2023/01/12 05:03:05;;;;;;;13.00;12.00;;;;;;;2.33;100.00;92922.16;5091237;28;20211;-74
2023/01/12 05:05:32;;;;;;;13.00;12.00;;;;;;;2.34;100.00;92944.31;5090725;28;21137;-73
2023/01/12 05:10:50;;;;;;;14.50;13.30;;;;;;;2.09;100.00;92926.47;5090462;28;20242;-73
2023/01/12 05:13:15;;;;;;;13.47;12.37;;;;;;;2.24;100.00;92941.53;5091377;28;20276;-75
2023/01/12 05:15:41;;;;;;;13.20;12.30;;;;;;;2.43;100.00;92948.19;5090821;28;20224;-72
2023/01/12 05:18:06;;;;;;;13.43;12.27;;;;;;;2.34;100.00;92934.03;5093069;28;20208;-71
2023/01/12 05:20:31;;;;;;;13.27;12.27;;;;;;;2.28;100.00;92940.06;5091796;28;20229;-74
2023/01/12 05:22:57;;;;;;;13.20;12.17;;;;;;;2.25;100.00;92953.38;5091897;28;20189;-83
2023/01/12 05:25:22;;;;;;;12.67;11.60;;;;;;;2.31;100.00;92960.22;5091283;28;20223;-75
2023/01/12 05:27:47;;;;;;;12.23;11.33;;;;;;;2.14;100.00;92954.91;5091450;28;20204;-75
2023/01/12 05:30:13;;;;;;;12.97;12.07;;;;;;;2.18;100.00;92932.88;5092070;28;20237;-84
2023/01/12 05:32:42;;;;;;;13.00;12.00;;;;;;;2.30;100.00;92925.19;5090825;28;20204;-83
2023/01/12 05:35:08;;;;;;;12.67;11.77;;;;;;;2.47;100.00;92965.56;5090906;28;20216;-82
2023/01/12 05:37:33;;;;;;;11.83;10.93;;;;;;;2.48;100.00;92961.16;5092372;28;20161;-82
2023/01/12 05:39:59;;;;;;;12.57;11.67;;;;;;;2.19;100.00;92956.84;5090703;28;20233;-83
2023/01/12 05:45:09;;;;;;;11.50;10.77;;;;;;;2.22;100.00;92958.97;5091227;28;20235;-82
2023/01/12 05:47:35;;;;;;;12.20;11.30;;;;;;;2.54;100.00;92986.03;5091059;28;20189;-82
2023/01/12 05:50:00;;;;;;;12.00;11.10;;;;;;;2.43;100.00;92979.88;5090631;28;20235;-84
2023/01/12 05:52:26;;;;;;;12.77;11.77;;;;;;;2.47;100.00;92982.78;5090829;28;20200;-82
2023/01/12 05:54:51;;;;;;;14.33;13.20;;;;;;;2.44;100.00;92990.97;5088640;28;20220;-83
2023/01/12 05:57:17;;;;;;;14.70;13.50;;;;;;;2.13;100.00;92988.63;5088964;28;20189;-80
2023/01/12 05:59:42;;;;;;;13.27;12.37;;;;;;;2.44;100.00;92985.81;5086050;28;20228;-82
2023/01/12 06:02:10;;;;;;;13.27;12.27;;;;;;;2.26;100.00;92947.22;5088770;28;20192;-80
2023/01/12 06:04:37;;;;;;;13.87;12.77;;;;;;;2.60;100.00;92987.75;5086368;28;20215;-80
2023/01/12 06:07:02;;;;;;;11.67;10.93;;;;;;;2.40;100.00;92988.03;5089076;28;20200;-79
2023/01/12 06:09:27;;;;;;;11.83;11.13;;;;;;;2.21;100.00;92983.16;5088591;28;20225;-80
2023/01/12 06:14:37;;;;;;;11.97;11.27;;;;;;;2.04;100.00;92967.53;5087423;28;20253;-78
2023/01/12 06:17:02;;;;;;;11.30;10.70;;;;;;;2.15;100.00;92987.38;5088144;28;20197;-75
2023/01/12 06:19:27;;;;;;;12.10;11.20;;;;;;;2.21;100.00;92985.75;5121221;28;20232;-74
2023/01/12 06:21:54;;;;;;;10.73;10.23;;;;;;;2.22;100.00;92985.53;5089073;28;20221;-76
2023/01/12 06:24:20;;;;;;;11.57;10.73;;;;;;;2.13;100.00;92973.97;5088664;28;20253;-79
2023/01/12 06:26:45;;;;;;;12.13;11.43;;;;;;;2.23;100.00;92988.88;5086322;28;20227;-79
2023/01/12 06:29:12;;;;;;;11.97;11.17;;;;;;;2.37;100.00;92985.09;5087078;28;20228;-79
2023/01/12 06:31:38;;;;;;;13.10;12.10;;;;;;;2.34;100.00;92991.50;5089329;28;20192;-77
2023/01/12 06:34:03;;;;;;;12.70;11.90;;;;;;;2.00;100.00;92961.25;5088569;28;20208;-78
2023/01/12 06:36:29;;;;;;;11.97;11.07;;;;;;;2.05;100.00;92976.03;5087779;28;20185;-78
2023/01/12 06:38:54;;;;;;;13.20;12.13;;;;;;;2.20;100.00;92987.53;5086329;28;20189;-76
2023/01/12 06:44:04;;;;;;;18.93;16.83;;;;;;;2.16;100.00;92985.59;5088883;28;20250;-77
2023/01/12 06:46:29;;;;;;;14.00;12.90;;;;;;;2.19;100.00;92990.31;5087264;28;20188;-77
2023/01/12 06:48:56;;;;;;;14.03;13.03;;;;;;;2.20;100.00;93004.75;5089015;28;20196;-77
2023/01/12 06:51:22;;;;;;;12.23;11.23;;;;;;;2.26;100.00;92996.16;5088898;28;20225;-77
2023/01/12 06:53:47;;;;;;;13.47;12.37;;;;;;;2.09;100.00;93000.34;5085745;28;20227;-77
2023/01/12 06:56:12;;;;;;;13.67;12.70;;;;;;;2.15;100.00;92991.78;5086470;28;20189;-77
2023/01/12 06:58:40;;;;;;;13.60;12.60;;;;;;;2.25;100.00;92997.16;5087486;28;20203;-77
2023/01/12 07:01:06;;;;;;;14.00;12.90;;;;;;;2.12;100.00;93002.50;5087976;28;20212;-76
2023/01/12 07:03:31;;;;;;;13.23;12.13;;;;;;;2.22;100.00;93000.19;5088706;28;20279;-77
2023/01/12 07:05:58;;;;;;;13.80;12.63;;;;;;;2.26;100.00;93004.66;5089064;28;20232;-76
2023/01/12 07:08:23;;;;;;;13.13;12.17;;;;;;;2.18;100.00;92983.59;5088589;28;20208;-77
2023/01/12 07:10:49;;;;;;;13.23;12.23;;;;;;;2.33;100.00;93009.75;5087881;28;20220;-77
2023/01/12 07:13:14;;;;;;;14.50;13.30;;;;;;;2.35;100.00;93012.88;5087666;28;20212;-75
2023/01/12 07:15:39;;;;;;;14.47;13.40;;;;;;;2.40;100.00;93020.72;5081763;28;20223;-76
2023/01/12 07:18:05;;;;;;;14.30;13.10;;;;;;;2.47;100.00;93008.56;5086255;28;20181;-73
2023/01/12 07:20:31;;;;;;;13.33;12.27;;;;;;;2.55;100.00;93003.09;5087088;28;20216;-75
2023/01/12 07:22:56;;;;;;;16.10;14.90;;;;;;;2.08;100.00;92960.16;5086339;28;20188;-75
2023/01/12 07:25:23;;;;;;;12.20;11.50;;;;;;;2.32;100.00;93003.78;5086564;28;20217;-75
2023/01/12 07:27:56;;;;;;;12.33;11.33;;;;;;;2.45;100.00;93002.81;5089392;28;20185;-75
2023/01/12 07:30:23;;;;;;;12.57;11.77;;;;;;;2.58;100.00;93012.97;5087571;28;20232;-76
2023/01/12 07:32:49;;;;;;;15.40;14.53;;;;;;;2.37;100.00;93008.28;5087650;28;20235;-74
2023/01/12 07:35:15;;;;;;;12.00;11.30;;;;;;;2.56;100.00;93007.22;5088442;28;20301;-76
2023/01/12 07:37:48;;;;;;;11.70;11.00;;;;;;;2.39;100.00;93004.50;5089000;28;20168;-76
2023/01/12 07:40:14;;;;;;;11.17;10.37;;;;;;;2.44;100.00;92999.47;5087791;28;20227;-76
2023/01/12 07:42:39;;;;;;;12.13;11.40;;;;;;;2.64;100.00;93007.72;5084370;28;20244;-76
2023/01/12 07:45:05;;;;;;;12.10;11.30;;;;;;;2.50;100.00;93000.38;5087553;28;20261;-76
2023/01/12 07:47:30;;;;;;;12.13;11.43;;;;;;;2.62;100.00;93011.50;5086759;28;20197;-76
2023/01/12 07:49:56;;;;;;;11.37;10.70;;;;;;;2.47;99.81;93003.41;5088461;28;20247;-76
2023/01/12 07:52:21;;;;;;;11.33;10.63;;;;;;;2.51;100.00;92978.75;5087224;28;20268;-77
2023/01/12 07:54:46;;;;;;;11.23;10.53;;;;;;;2.78;99.14;93013.44;5088146;28;20234;-77
2023/01/12 07:57:12;;;;;;;12.63;11.73;;;;;;;2.72;100.00;93011.75;5085959;28;20184;-76
2023/01/12 07:59:37;;;;;;;11.90;11.10;;;;;;;2.80;100.00;93019.94;5088048;28;20229;-77
2023/01/12 08:02:03;;;;;;;10.90;10.27;;;;;;;2.83;100.00;93011.78;5088588;28;20252;-77
2023/01/12 08:04:28;;;;;;;11.70;10.57;;;;;;;3.26;98.46;93022.59;5087664;28;20231;-77
2023/01/12 08:06:54;;;;;;;10.80;10.20;;;;;;;3.50;96.86;93020.81;5086022;28;20185;-79
2023/01/12 08:09:19;;;;;;;11.27;10.57;;;;;;;3.43;96.03;93027.06;5088348;28;20243;-78
2023/01/12 08:11:44;;;;;;;11.47;10.67;;;;;;;3.21;97.50;93019.91;5090492;28;20205;-76
2023/01/12 08:14:23;;;;;;;11.87;11.17;;;;;;;3.28;97.29;93025.72;5091269;28;20285;-75
2023/01/12 08:16:49;;;;;;;12.60;11.70;;;;;;;3.36;97.62;93001.41;5090245;28;20227;-76
2023/01/12 08:19:21;;;;;;;13.13;12.03;;;;;;;3.67;96.21;93013.94;5090982;28;21240;-76
2023/01/12 08:21:56;;;;;;;12.27;11.37;;;;;;;3.90;94.48;93021.66;5089624;28;20227;-77
2023/01/12 08:24:26;;;;;;;14.50;13.20;;;;;;;3.61;96.46;93029.53;5093577;28;20227;-75
2023/01/12 08:26:54;;;;;;;12.70;11.77;;;;;;;3.80;95.07;93003.34;5089924;28;20208;-77
2023/01/12 08:29:30;;;;;;;12.73;11.67;;;;;;;3.88;94.44;93009.97;5090219;28;20323;-76
2023/01/12 08:32:02;;;;;;;13.23;12.13;;;;;;;3.95;94.04;93016.59;5090262;28;20248;-76
2023/01/12 08:34:40;;;;;;;12.90;11.87;;;;;;;3.80;95.78;92995.59;5091369;28;20212;-76
2023/01/12 08:37:10;;;;;;;13.83;12.70;;;;;;;3.41;95.96;93001.50;5091217;28;20215;-75
2023/01/12 08:39:36;;;;;;;14.53;13.33;;;;;;;3.57;96.49;93011.13;5090381;28;20221;-76
2023/01/12 08:42:02;;;;;;;13.27;12.03;;;;;;;3.75;97.12;93010.22;5091662;28;20187;-75
2023/01/12 08:44:37;;;;;;;13.70;12.27;;;;;;;3.76;96.64;93010.00;5094371;28;20271;-76
2023/01/12 08:47:05;;;;;;;13.97;12.77;;;;;;;3.72;97.82;93014.03;5090296;28;20188;-76
2023/01/12 08:49:32;;;;;;;13.60;12.50;;;;;;;4.15;95.48;93019.56;5087888;28;20217;-76
2023/01/12 08:51:58;;;;;;;14.53;13.33;;;;;;;3.73;94.86;93017.41;5090082;28;20221;-77
2023/01/12 08:54:24;;;;;;;13.23;12.23;;;;;;;3.59;95.78;93019.44;5090853;28;20232;-76
2023/01/12 08:56:50;;;;;;;12.83;11.63;;;;;;;3.61;96.42;93008.91;5090276;28;20189;-76
2023/01/12 08:59:18;;;;;;;12.93;11.73;;;;;;;3.51;96.17;93003.50;5090762;28;20258;-74
2023/01/12 09:01:43;;;;;;;13.33;12.33;;;;;;;3.89;95.19;93001.97;5090982;28;20240;-75
2023/01/12 09:04:08;;;;;;;11.93;11.07;;;;;;;3.86;94.20;93010.19;5090138;28;20228;-76
2023/01/12 09:06:39;;;;;;;13.03;12.03;;;;;;;3.68;96.63;93028.41;5089716;28;20188;-75
2023/01/12 09:09:15;;;;;;;13.90;12.80;;;;;;;3.63;95.68;93025.72;5090167;28;20180;-75
2023/01/12 09:11:42;;;;;;;13.50;12.50;;;;;;;3.60;96.78;93026.16;5089234;28;20203;-76
2023/01/12 09:14:12;;;;;;;12.37;11.20;;;;;;;3.25;97.76;93017.66;5090370;28;20228;-75
2023/01/12 09:16:38;;;;;;;13.53;12.60;;;;;;;3.32;98.66;93020.91;5087908;28;20192;-75
2023/01/12 09:19:04;;;;;;;12.93;11.97;;;;;;;3.74;96.91;93024.13;5089827;28;20203;-75
2023/01/12 09:21:30;;;;;;;14.07;12.97;;;;;;;3.84;97.11;93025.16;5090225;28;20210;-76
2023/01/12 09:23:56;;;;;;;13.23;12.10;;;;;;;3.76;96.35;93028.06;5088334;28;20207;-73
2023/01/12 09:26:25;;;;;;;13.20;12.27;;;;;;;3.61;97.44;93025.16;5089797;28;20181;-73
2023/01/12 09:28:51;;;;;;;12.43;11.67;;;;;;;3.32;99.58;93020.91;5088417;28;20200;-71
2023/01/12 09:31:19;;;;;;;11.87;11.17;;;;;;;3.46;98.84;93021.44;5090815;28;20207;-72
2023/01/12 09:33:46;;;;;;;12.83;11.93;;;;;;;3.23;99.13;93023.06;5089916;28;20208;-72
2023/01/12 09:36:12;;;;;;;11.50;10.70;;;;;;;3.57;98.72;93023.25;5089977;28;20205;-74
2023/01/12 09:38:39;;;;;;;11.00;10.33;;;;;;;3.63;97.82;93022.38;5089116;28;20223;-73
2023/01/12 09:47:18;;;;;;;12.03;11.30;;;;;;;3.47;99.30;93016.06;5089212;28;20208;-72
2023/01/12 09:49:50;;;;;;;11.87;11.07;;;;;;;3.50;98.25;93018.22;5086527;28;20334;-72
2023/01/12 09:52:26;;;;;;;12.40;11.47;;;;;;;3.49;99.17;93008.91;5103296;28;20185;-72
2023/01/12 09:54:52;;;;;;;11.70;10.97;;;;;;;3.18;100.00;93009.22;5086344;28;20221;-74
2023/01/12 09:57:29;;;;;;;12.07;11.27;;;;;;;2.96;99.92;92995.31;5089241;28;20192;-72
2023/01/12 10:00:10;;;;;;;12.03;11.23;;;;;;;3.30;99.72;93000.50;5088059;28;20216;-73
2023/01/12 10:02:39;;;;;;;13.43;12.40;;;;;;;3.19;100.00;93009.00;5090257;28;20192;-72
2023/01/12 10:05:19;;;;;;;11.30;10.40;;;;;;;3.19;99.59;92997.94;5087255;28;20221;-72
2023/01/12 10:07:44;;;;;;;12.80;11.70;;;;;;;3.13;99.45;93003.97;5089395;28;20279;-72
2023/01/12 10:10:14;;;;;;;12.17;11.17;;;;;;;3.09;98.50;93010.59;5087293;28;20225;-72
2023/01/12 10:12:50;;;;;;;11.73;10.93;;;;;;;3.33;98.06;93015.53;5087517;28;20272;-72
2023/01/12 10:15:36;;;;;;;12.23;11.43;;;;;;;3.31;98.00;93009.03;5087497;28;20224;-72
2023/01/12 10:18:15;;;;;;;12.50;11.50;;;;;;;3.26;97.75;93021.81;5088177;28;20191;-73
2023/01/12 10:20:43;;;;;;;12.27;11.33;;;;;;;3.38;98.29;93009.69;5087710;28;20280;-72
2023/01/12 10:23:11;;;;;;;12.17;11.17;;;;;;;3.28;97.31;93015.41;5089476;28;20185;-73
2023/01/12 10:25:49;;;;;;;11.33;10.73;;;;;;;3.19;96.84;93010.81;5087536;28;20292;-71
2023/01/12 10:28:42;;;;;;;11.57;10.63;;;;;;;3.35;96.63;93017.09;5088860;28;21042;-70
2023/01/12 10:31:20;;;;;;;12.03;11.23;;;;;;;3.59;96.21;93013.50;5085416;28;20247;-71
2023/01/12 10:34:06;;;;;;;13.47;12.30;;;;;;;3.65;95.31;93010.78;5088427;28;20216;-71
2023/01/12 10:36:34;;;;;;;12.00;11.10;;;;;;;3.75;95.44;93000.66;5088305;28;20235;-71
2023/01/12 10:39:02;;;;;;;11.03;10.37;;;;;;;3.84;94.90;93004.47;5085566;28;20193;-71
2023/01/12 10:41:36;;;;;;;12.03;11.13;;;;;;;3.50;94.17;92961.44;5089814;28;20193;-71
2023/01/12 10:44:02;;;;;;;12.97;11.77;;;;;;;4.11;94.78;93002.94;5086598;28;20271;-71
2023/01/12 10:46:30;;;;;;;11.97;11.37;;;;;;;4.32;93.03;92989.41;5088566;28;20185;-70
2023/01/12 10:49:14;;;;;;;11.80;11.10;;;;;;;4.27;91.94;93002.22;5088121;28;20210;-71
2023/01/12 10:51:51;;;;;;;11.43;10.63;;;;;;;4.21;92.95;92990.22;5088076;28;20217;-72
2023/01/12 10:54:19;;;;;;;10.50;9.90;;;;;;;3.96;92.42;92997.47;5088408;28;20228;-72
2023/01/12 10:56:59;;;;;;;10.80;10.20;;;;;;;3.67;94.29;92988.13;5087935;28;20189;-72
2023/01/12 10:59:28;;;;;;;10.83;10.30;;;;;;;3.50;94.43;92992.41;5085867;28;20217;-70
2023/01/12 11:02:06;;;;;;;9.97;9.37;;;;;;;3.31;94.70;92990.97;5089208;28;20227;-70
2023/01/12 11:04:45;;;;;;;11.43;10.73;;;;;;;3.67;95.54;92985.53;5087318;28;20235;-71
2023/01/12 11:07:21;;;;;;;11.00;10.20;;;;;;;3.70;93.72;92982.50;5090271;28;20195;-71
2023/01/12 11:09:47;;;;;;;11.47;10.77;;;;;;;3.34;95.16;92990.50;5088185;28;20265;-70
2023/01/12 11:12:21;;;;;;;11.67;11.07;;;;;;;3.50;94.52;92982.09;5089208;28;20197;-70
2023/01/12 11:15:17;;;;;;;11.70;11.00;;;;;;;4.03;95.12;92974.13;5086533;28;20251;-72
2023/01/12 11:18:01;;;;;;;11.50;10.80;;;;;;;3.94;94.79;92981.44;5068351;28;20264;-71
2023/01/12 11:20:50;;;;;;;11.87;11.17;;;;;;;4.33;93.00;92982.41;5088497;28;20229;-70
2023/01/12 11:23:19;;;;;;;11.17;10.63;;;;;;;4.21;93.89;92977.31;5086802;28;20176;-73
2023/01/12 11:25:46;;;;;;;12.47;11.67;;;;;;;4.05;93.09;92975.44;5085901;28;20224;-72
2023/01/12 11:28:37;;;;;;;11.50;10.87;;;;;;;4.63;91.42;92983.75;5088267;28;20248;-72
2023/01/12 11:31:17;;;;;;;12.77;11.97;;;;;;;4.38;91.92;92978.13;5088763;28;20310;-73
2023/01/12 11:33:45;;;;;;;10.97;10.30;;;;;;;4.21;91.41;92961.81;5087084;28;20215;-74
2023/01/12 11:36:18;;;;;;;11.13;10.53;;;;;;;4.13;91.80;92972.50;5090402;28;20231;-74
2023/01/12 11:38:46;;;;;;;12.03;11.33;;;;;;;3.72;94.13;92943.56;5087821;28;20181;-74
2023/01/12 11:41:34;;;;;;;10.83;10.13;;;;;;;4.17;93.22;92968.44;5087954;28;20220;-74
2023/01/12 11:44:25;;;;;;;11.27;10.57;;;;;;;3.91;92.48;92952.69;5074728;28;20185;-73
2023/01/12 11:47:02;;;;;;;12.67;11.83;;;;;;;3.85;94.00;92962.16;5086927;28;20193;-73
2023/01/12 11:49:37;;;;;;;11.33;10.73;;;;;;;3.57;93.80;92928.53;5086694;28;20240;-73
2023/01/12 11:52:03;;;;;;;11.07;10.40;;;;;;;3.67;95.46;92958.94;5085660;28;20213;-70
2023/01/12 11:54:30;;;;;;;11.23;10.63;;;;;;;4.06;93.47;92966.66;5085037;28;20231;-71
2023/01/12 11:57:33;;;;;;;12.40;11.70;;;;;;;4.25;93.26;92957.72;5086184;28;20347;-71
2023/01/12 12:00:14;;;;;;;12.60;11.80;;;;;;;4.24;92.34;92953.59;5086295;28;20240;-84
2023/01/12 12:02:48;;;;;;;11.83;11.07;;;;;;;4.57;93.41;92958.81;5104890;28;20260;-86
2023/01/12 12:05:35;;;;;;;11.93;11.23;;;;;;;4.22;92.29;92953.03;5089046;28;20327;-85